Time;durP1;ratioP1;P1;durP2;ratioP2;P2;SDS_P1;SDS_P2;PMS_P1;PMS_P2;Temp;Humidity;BMP_temperature;BMP_pressure;BME280_temperature;BME280_humidity;BME280_pressure;Samples;Min_cycle;Max_cycle;Signal;HPM_P1;HPM_P2
2023/06/21 00:00:30;;;;;;;4.30;2.72;;;24.60;68.70;;;;;;4996041;28;20048;-59
2023/06/21 00:02:59;;;;;;;3.80;2.50;;;24.60;68.60;;;;;;4995362;28;20121;-59
2023/06/21 00:05:25;;;;;;;4.82;3.25;;;24.60;68.60;;;;;;4992003;28;20047;-59
2023/06/21 00:07:52;;;;;;;5.28;2.85;;;24.60;68.60;;;;;;4986484;28;20069;-59
2023/06/21 00:10:20;;;;;;;3.95;2.95;;;24.60;68.60;;;;;;4976378;28;20047;-59
2023/06/21 00:12:46;;;;;;;3.88;3.00;;;24.60;68.60;;;;;;4975540;28;20097;-59
2023/06/21 00:15:11;;;;;;;4.22;2.80;;;24.60;68.60;;;;;;4976180;28;20050;-59
2023/06/21 00:17:37;;;;;;;4.15;2.78;;;24.60;68.50;;;;;;4976175;28;20053;-59
2023/06/21 00:20:03;;;;;;;4.32;2.75;;;24.60;68.50;;;;;;4975119;28;20054;-59
2023/06/21 00:22:29;;;;;;;4.05;2.63;;;24.50;68.40;;;;;;4976313;28;20045;-59
2023/06/21 00:24:57;;;;;;;5.40;3.20;;;24.60;68.40;;;;;;4975533;28;20054;-58
2023/06/21 00:27:22;;;;;;;4.80;3.03;;;24.60;68.40;;;;;;4975527;28;20038;-59
2023/06/21 00:29:48;;;;;;;4.53;2.97;;;24.60;68.40;;;;;;4974241;28;20586;-58
2023/06/21 00:32:13;;;;;;;4.95;2.85;;;24.50;68.30;;;;;;4975965;28;20049;-59
2023/06/21 00:34:39;;;;;;;5.13;2.92;;;24.50;68.30;;;;;;4975149;28;20130;-59
2023/06/21 00:37:05;;;;;;;4.43;2.88;;;24.60;68.30;;;;;;4975346;28;20058;-59
2023/06/21 00:39:30;;;;;;;3.17;2.28;;;24.60;68.90;;;;;;4975443;28;20050;-58
2023/06/21 00:41:56;;;;;;;3.85;2.58;;;24.60;68.20;;;;;;4983229;28;20092;-59
2023/06/21 00:44:22;;;;;;;3.92;2.88;;;24.50;68.10;;;;;;4994948;28;20049;-58
2023/06/21 00:46:48;;;;;;;3.90;2.67;;;24.50;68.10;;;;;;4994717;28;20490;-58
2023/06/21 00:49:14;;;;;;;5.10;2.60;;;24.50;68.20;;;;;;4994482;28;20061;-58
2023/06/21 00:51:40;;;;;;;4.35;2.72;;;24.50;68.10;;;;;;4995268;28;20405;-59
2023/06/21 00:54:06;;;;;;;4.18;2.83;;;24.50;68.10;;;;;;4993934;28;20130;-58
2023/06/21 00:56:34;;;;;;;4.28;2.60;;;24.50;68.10;;;;;;4994708;28;20042;-59
2023/06/21 00:59:00;;;;;;;4.20;2.60;;;24.50;68.00;;;;;;4994336;28;20057;-58
2023/06/21 01:01:26;;;;;;;3.60;2.75;;;24.50;68.00;;;;;;4994211;28;20161;-59
2023/06/21 01:03:53;;;;;;;4.28;2.80;;;24.50;68.00;;;;;;4994644;28;20057;-59
2023/06/21 01:06:57;;;;;;;4.15;2.78;;;24.50;68.10;;;;;;4994841;28;20050;-59
2023/06/21 01:09:29;;;;;;;4.25;2.70;;;24.50;67.80;;;;;;4991871;28;20061;-59
2023/06/21 01:12:04;;;;;;;3.90;2.65;;;24.50;67.90;;;;;;4993035;28;20506;-59
2023/06/21 01:15:25;;;;;;;3.95;2.50;;;24.50;67.90;;;;;;4993510;28;20050;-59
2023/06/21 01:17:52;;;;;;;4.10;2.53;;;24.50;67.80;;;;;;4953140;29;20061;-59
2023/06/21 01:20:24;;;;;;;3.92;2.30;;;24.50;67.90;;;;;;4986167;28;20057;-59
2023/06/21 01:23:14;;;;;;;3.53;2.22;;;24.50;67.80;;;;;;4992415;28;20048;-59
2023/06/21 01:25:56;;;;;;;3.75;2.38;;;24.50;67.70;;;;;;4994519;28;20077;-59
2023/06/21 01:28:24;;;;;;;3.10;2.35;;;24.50;67.70;;;;;;4993276;28;20046;-59
2023/06/21 01:30:50;;;;;;;4.57;2.50;;;24.50;67.70;;;;;;4993288;28;20113;-59
2023/06/21 01:33:18;;;;;;;3.78;2.75;;;24.50;67.70;;;;;;4993165;28;20442;-59
2023/06/21 01:35:44;;;;;;;3.95;2.67;;;24.50;67.70;;;;;;4992742;28;20051;-59
2023/06/21 01:38:10;;;;;;;4.80;2.95;;;24.50;67.70;;;;;;4993492;28;20077;-59
2023/06/21 01:40:37;;;;;;;4.30;2.40;;;24.50;67.70;;;;;;4992977;28;20042;-59
2023/06/21 01:43:02;;;;;;;4.75;2.60;;;24.50;67.70;;;;;;4993370;28;20486;-59
2023/06/21 01:45:28;;;;;;;4.53;2.97;;;24.50;67.70;;;;;;4993773;28;20069;-59
2023/06/21 01:47:53;;;;;;;3.42;2.35;;;24.50;67.60;;;;;;4993852;28;20065;-59
2023/06/21 01:50:20;;;;;;;3.33;2.25;;;24.50;67.60;;;;;;4994070;28;20126;-59
2023/06/21 01:52:46;;;;;;;3.78;2.30;;;24.50;67.60;;;;;;4976281;28;20042;-59
2023/06/21 01:55:11;;;;;;;3.47;2.35;;;24.50;67.60;;;;;;4992581;28;20050;-59
2023/06/21 01:57:37;;;;;;;3.92;2.42;;;24.50;67.50;;;;;;4991749;28;20046;-59
2023/06/21 02:00:15;;;;;;;3.78;2.30;;;24.50;67.50;;;;;;4992241;28;20512;-59
2023/06/21 02:03:08;;;;;;;4.45;2.72;;;24.50;67.50;;;;;;4992905;28;20042;-59
2023/06/21 02:05:34;;;;;;;2.92;2.30;;;24.40;67.40;;;;;;4990395;28;20082;-58
2023/06/21 02:08:00;;;;;;;3.40;2.50;;;24.40;67.40;;;;;;4992275;28;20046;-58
2023/06/21 02:10:25;;;;;;;4.55;2.50;;;24.50;67.50;;;;;;4993249;28;20073;-59
2023/06/21 02:12:54;;;;;;;3.15;2.30;;;24.50;67.30;;;;;;4990853;28;20046;-59
2023/06/21 02:15:19;;;;;;;3.75;2.42;;;24.40;67.30;;;;;;4993771;28;20077;-59
2023/06/21 02:17:49;;;;;;;3.65;2.50;;;24.40;67.20;;;;;;4993390;28;20108;-59
2023/06/21 02:20:18;;;;;;;3.17;2.50;;;24.40;67.20;;;;;;4992702;28;20054;-59
2023/06/21 02:22:44;;;;;;;3.42;2.15;;;24.40;67.20;;;;;;4993682;28;20038;-59
2023/06/21 02:25:10;;;;;;;3.58;2.50;;;24.40;67.20;;;;;;4992973;28;20053;-59
2023/06/21 02:27:36;;;;;;;3.30;2.55;;;24.40;67.20;;;;;;4992880;28;20050;-59
2023/06/21 02:30:02;;;;;;;3.20;2.20;;;24.40;67.20;;;;;;4993280;28;20080;-59
2023/06/21 02:32:28;;;;;;;2.85;2.00;;;24.40;67.20;;;;;;4993176;28;20128;-59
2023/06/21 02:34:53;;;;;;;3.80;2.42;;;24.40;67.10;;;;;;4992413;28;20089;-59
2023/06/21 02:37:19;;;;;;;3.25;2.35;;;24.40;67.10;;;;;;4993069;28;20125;-59
2023/06/21 02:39:44;;;;;;;3.13;2.47;;;24.40;67.10;;;;;;4992474;28;20053;-59
2023/06/21 02:42:10;;;;;;;4.50;2.70;;;24.40;67.10;;;;;;4992875;28;20125;-59
2023/06/21 02:44:35;;;;;;;3.85;2.28;;;24.40;67.00;;;;;;4993089;28;20090;-59
2023/06/21 02:47:01;;;;;;;3.45;2.45;;;24.40;67.00;;;;;;4991916;28;20545;-59
2023/06/21 02:49:26;;;;;;;3.05;2.30;;;24.40;67.00;;;;;;4993314;28;20478;-59
2023/06/21 02:51:52;;;;;;;2.75;1.98;;;24.40;67.00;;;;;;4993012;28;20085;-59
2023/06/21 02:54:18;;;;;;;3.13;2.30;;;24.40;67.00;;;;;;4992489;28;20101;-59
2023/06/21 02:56:43;;;;;;;3.15;2.17;;;24.40;67.00;;;;;;4992379;28;20046;-59
2023/06/21 02:59:09;;;;;;;3.95;2.30;;;24.40;67.00;;;;;;4992590;28;20124;-59
2023/06/21 03:01:35;;;;;;;3.80;2.25;;;24.40;66.90;;;;;;4992381;28;20038;-59
2023/06/21 03:04:01;;;;;;;3.10;2.20;;;24.40;66.90;;;;;;4992656;28;20046;-58
2023/06/21 03:06:29;;;;;;;3.88;2.50;;;24.40;67.00;;;;;;4992682;28;20113;-58
2023/06/21 03:08:57;;;;;;;;;;;24.40;66.90;;;;;;4992557;28;20050;-59
2023/06/21 03:11:23;;;;;;;4.50;2.70;;;24.30;66.70;;;;;;4992842;28;19929;-58
2023/06/21 03:13:49;;;;;;;3.90;2.75;;;24.40;67.00;;;;;;4992857;28;20035;-58
2023/06/21 03:16:15;;;;;;;3.35;2.55;;;24.30;66.90;;;;;;4992596;28;20566;-59
2023/06/21 03:18:40;;;;;;;3.40;2.47;;;24.30;66.90;;;;;;4993107;28;20038;-59
2023/06/21 03:21:06;;;;;;;4.20;2.63;;;24.30;66.80;;;;;;4992525;28;20348;-59
2023/06/21 03:23:31;;;;;;;4.80;2.95;;;24.30;66.80;;;;;;4992537;28;20050;-59
2023/06/21 03:25:57;;;;;;;3.38;2.47;;;24.30;66.80;;;;;;4995179;28;20046;-59
2023/06/21 03:28:23;;;;;;;3.55;2.42;;;24.30;66.70;;;;;;4996495;28;20043;-58
2023/06/21 03:30:48;;;;;;;3.30;2.13;;;24.30;66.70;;;;;;4995837;28;20366;-59
2023/06/21 03:33:14;;;;;;;4.35;2.50;;;24.30;66.70;;;;;;4996643;28;20121;-59
2023/06/21 03:35:39;;;;;;;3.00;2.30;;;24.30;66.70;;;;;;4996154;28;20460;-59
2023/06/21 03:38:07;;;;;;;3.75;2.63;;;24.30;66.70;;;;;;4995668;28;20046;-59
2023/06/21 03:40:33;;;;;;;3.75;2.47;;;24.30;66.70;;;;;;4996553;28;20084;-59
2023/06/21 03:42:58;;;;;;;3.47;2.47;;;24.30;66.70;;;;;;4995086;28;20125;-59
2023/06/21 03:45:24;;;;;;;3.67;2.40;;;24.30;66.60;;;;;;4996039;28;20498;-59
2023/06/21 03:47:49;;;;;;;3.78;2.55;;;24.30;66.60;;;;;;4994902;28;20392;-59
2023/06/21 03:50:15;;;;;;;3.40;2.42;;;24.30;66.70;;;;;;4995627;28;20050;-58
2023/06/21 03:52:40;;;;;;;3.40;2.58;;;24.30;66.70;;;;;;4995989;28;20046;-59
2023/06/21 03:55:07;;;;;;;3.15;2.35;;;24.30;66.60;;;;;;4995947;28;20046;-58
2023/06/21 03:57:32;;;;;;;3.83;3.03;;;24.30;66.60;;;;;;4995224;28;20046;-58
2023/06/21 03:59:58;;;;;;;3.42;2.70;;;24.30;66.60;;;;;;4995826;28;20149;-58
2023/06/21 04:02:24;;;;;;;3.60;2.40;;;24.30;66.60;;;;;;4981830;28;20077;-59
2023/06/21 04:04:49;;;;;;;3.42;2.50;;;24.30;66.50;;;;;;4975966;28;20094;-58
2023/06/21 04:07:19;;;;;;;3.25;2.35;;;24.20;66.40;;;;;;4976386;28;20042;-59
2023/06/21 04:09:45;;;;;;;3.78;2.60;;;24.30;66.50;;;;;;4978041;28;20089;-59
2023/06/21 04:12:10;;;;;;;4.72;2.80;;;24.30;66.50;;;;;;4985472;28;20054;-59
2023/06/21 04:14:36;;;;;;;3.80;2.50;;;24.30;66.50;;;;;;4976054;28;20043;-58
2023/06/21 04:17:02;;;;;;;4.07;2.90;;;24.30;66.50;;;;;;4975945;28;20098;-58
2023/06/21 04:19:28;;;;;;;3.42;2.50;;;24.30;66.50;;;;;;4975747;28;20043;-58
2023/06/21 04:21:54;;;;;;;4.30;2.75;;;24.20;66.50;;;;;;4976045;28;20050;-59
2023/06/21 04:24:19;;;;;;;3.95;2.65;;;24.30;66.60;;;;;;4976027;28;20557;-59
2023/06/21 04:26:45;;;;;;;3.92;2.90;;;24.30;66.60;;;;;;4975763;28;20043;-58
2023/06/21 04:29:10;;;;;;;3.85;2.75;;;24.30;66.60;;;;;;4975888;28;20498;-59
2023/06/21 04:31:37;;;;;;;3.35;2.63;;;24.20;66.60;;;;;;4975855;28;20566;-59
2023/06/21 04:34:06;;;;;;;4.97;3.43;;;24.30;66.70;;;;;;4975231;28;20050;-58
2023/06/21 04:36:31;;;;;;;4.68;2.83;;;24.30;66.70;;;;;;4975187;28;20403;-58
2023/06/21 04:38:57;;;;;;;4.30;2.80;;;24.30;66.80;;;;;;4975296;28;20494;-59
2023/06/21 04:41:22;;;;;;;4.28;3.00;;;24.30;66.70;;;;;;4975419;28;20039;-59
2023/06/21 04:43:48;;;;;;;3.75;2.70;;;24.30;66.70;;;;;;4975409;28;20054;-60
2023/06/21 04:46:13;;;;;;;4.60;3.13;;;24.30;66.70;;;;;;4977043;28;20497;-58
2023/06/21 04:48:39;;;;;;;5.20;3.15;;;24.30;66.70;;;;;;4994886;28;20090;-59
2023/06/21 04:51:05;;;;;;;4.28;2.55;;;24.30;66.70;;;;;;4994152;28;20053;-58
2023/06/21 04:53:31;;;;;;;4.03;3.08;;;24.30;66.70;;;;;;4994248;28;20034;-58
2023/06/21 04:55:57;;;;;;;4.68;2.97;;;24.30;66.60;;;;;;4994864;28;20038;-59
2023/06/21 04:58:26;;;;;;;14.77;10.15;;;24.30;66.60;;;;;;4995116;28;20233;-59
2023/06/21 05:00:51;;;;;;;25.48;19.05;;;24.30;66.60;;;;;;4993945;28;20117;-59
2023/06/21 05:03:17;;;;;;;28.23;21.65;;;24.20;66.70;;;;;;4994128;28;20142;-59
2023/06/21 05:05:42;;;;;;;27.38;21.83;;;24.20;67.00;;;;;;4994789;28;20046;-58
2023/06/21 05:08:08;;;;;;;27.88;21.00;;;24.10;67.20;;;;;;4993897;28;20125;-59
2023/06/21 05:10:34;;;;;;;28.88;23.58;;;24.00;67.40;;;;;;4994577;28;20093;-58
2023/06/21 05:12:59;;;;;;;31.55;23.88;;;24.00;67.70;;;;;;4994145;28;20165;-59
2023/06/21 05:15:26;;;;;;;31.27;23.77;;;23.90;67.90;;;;;;4989536;28;20035;-59
2023/06/21 05:17:51;;;;;;;31.35;23.92;;;23.80;68.10;;;;;;4975103;28;20040;-59
2023/06/21 05:20:18;;;;;;;29.25;24.85;;;23.80;68.40;;;;;;4975146;28;20046;-59
2023/06/21 05:22:44;;;;;;;30.83;24.02;;;23.70;68.60;;;;;;4974530;28;20039;-59
2023/06/21 05:25:09;;;;;;;31.15;24.55;;;23.70;68.80;;;;;;4973446;28;20053;-59
2023/06/21 05:27:35;;;;;;;31.65;25.85;;;23.60;68.80;;;;;;4974930;28;20549;-59
2023/06/21 05:30:00;;;;;;;34.58;25.95;;;23.60;68.90;;;;;;4974172;28;20039;-59
2023/06/21 05:32:26;;;;;;;31.65;24.77;;;23.50;69.00;;;;;;4975127;28;20090;-59
2023/06/21 05:34:53;;;;;;;33.70;25.67;;;23.40;69.10;;;;;;4974367;28;20525;-60
2023/06/21 05:37:18;;;;;;;30.17;24.23;;;23.40;69.20;;;;;;4974165;28;20097;-59
2023/06/21 05:39:44;;;;;;;32.42;24.40;;;23.40;69.40;;;;;;4974852;28;20082;-59
2023/06/21 05:42:10;;;;;;;33.58;24.80;;;23.40;69.60;;;;;;4972860;28;20062;-59
2023/06/21 05:44:36;;;;;;;29.10;23.90;;;23.40;69.60;;;;;;4974236;28;20043;-60
2023/06/21 05:47:01;;;;;;;30.83;24.02;;;23.40;69.70;;;;;;4972348;28;20085;-60
2023/06/21 05:49:27;;;;;;;31.98;24.80;;;23.30;69.70;;;;;;4974470;28;20038;-59
2023/06/21 05:51:52;;;;;;;31.58;23.00;;;23.30;69.70;;;;;;4970908;28;20093;-59
2023/06/21 05:54:18;;;;;;;30.80;23.35;;;23.30;69.70;;;;;;4974155;28;20046;-59
2023/06/21 05:56:44;;;;;;;31.48;23.98;;;23.30;69.80;;;;;;4981331;28;20042;-59
2023/06/21 05:59:10;;;;;;;30.13;23.92;;;23.30;69.80;;;;;;4992280;28;20137;-59
2023/06/21 06:01:36;;;;;;;32.95;24.75;;;23.40;69.90;;;;;;4991129;28;20049;-59
2023/06/21 06:04:01;;;;;;;32.85;24.77;;;23.30;69.90;;;;;;4992251;28;20145;-59
2023/06/21 06:06:38;;;;;;;28.08;22.48;;;23.30;69.90;;;;;;4987600;28;20117;-60
2023/06/21 06:09:04;;;;;;;31.98;25.73;;;23.30;70.00;;;;;;4972922;28;20042;-59
2023/06/21 06:11:30;;;;;;;29.10;22.67;;;23.30;70.00;;;;;;4973427;28;20082;-60
2023/06/21 06:13:55;;;;;;;34.35;24.45;;;23.30;70.10;;;;;;4973519;28;20097;-60
2023/06/21 06:16:21;;;;;;;31.05;23.88;;;23.30;70.10;;;;;;4973469;28;20038;-60
2023/06/21 06:18:46;;;;;;;33.38;24.33;;;23.20;70.10;;;;;;4971070;28;20121;-59
2023/06/21 06:21:12;;;;;;;32.85;23.90;;;23.30;70.20;;;;;;4976187;28;20055;-60
2023/06/21 06:23:38;;;;;;;33.67;23.92;;;23.20;70.20;;;;;;4992796;28;20049;-61
2023/06/21 06:26:04;;;;;;;28.42;22.02;;;23.30;70.20;;;;;;4992036;28;20065;-61
2023/06/21 06:28:29;;;;;;;29.58;23.35;;;23.20;70.10;;;;;;4993599;28;20049;-60
2023/06/21 06:30:55;;;;;;;31.23;21.85;;;23.20;70.10;;;;;;5011925;28;20050;-59
2023/06/21 06:33:20;;;;;;;26.60;21.50;;;23.20;70.10;;;;;;4991877;28;20038;-59
2023/06/21 06:35:46;;;;;;;27.98;21.83;;;23.20;70.10;;;;;;4991709;28;20101;-59
2023/06/21 06:38:12;;;;;;;29.50;22.08;;;23.20;70.10;;;;;;4974718;28;20097;-60
2023/06/21 06:40:37;;;;;;;28.73;21.48;;;23.20;70.10;;;;;;4973068;28;20496;-60
2023/06/21 06:43:06;;;;;;;28.05;22.02;;;23.20;70.20;;;;;;5001006;28;20112;-60
2023/06/21 06:45:31;;;;;;;32.42;23.40;;;23.20;70.20;;;;;;5012235;28;20073;-60
2023/06/21 06:47:57;;;;;;;29.45;21.80;;;23.20;70.10;;;;;;4980697;28;20081;-60
2023/06/21 06:50:23;;;;;;;26.25;20.15;;;23.20;70.10;;;;;;4973373;28;20434;-60
2023/06/21 06:52:49;;;;;;;27.63;20.70;;;23.20;69.90;;;;;;4972114;28;20550;-60
2023/06/21 06:55:14;;;;;;;28.15;20.13;;;23.20;69.90;;;;;;4972994;28;20043;-60
2023/06/21 06:57:40;;;;;;;26.98;20.67;;;23.20;69.80;;;;;;4973758;28;20042;-59
2023/06/21 07:00:11;;;;;;;25.50;20.02;;;23.20;69.70;;;;;;5003340;28;20872;-60
2023/06/21 07:02:36;;;;;;;26.23;20.42;;;23.20;69.70;;;;;;5016941;28;20056;-59
2023/06/21 07:05:02;;;;;;;26.40;18.85;;;23.20;69.80;;;;;;5015983;28;20037;-59
2023/06/21 07:07:27;;;;;;;22.77;17.63;;;23.20;69.70;;;;;;5014317;28;20045;-60
2023/06/21 07:09:53;;;;;;;26.13;18.88;;;23.20;69.50;;;;;;5015816;28;20054;-60
2023/06/21 07:12:18;;;;;;;24.23;17.85;;;23.20;69.40;;;;;;5016550;28;20386;-59
2023/06/21 07:14:44;;;;;;;22.58;17.00;;;23.20;69.30;;;;;;5016141;28;20516;-59
2023/06/21 07:17:09;;;;;;;23.38;16.67;;;23.20;69.00;;;;;;5016239;28;20041;-60
2023/06/21 07:19:35;;;;;;;22.20;16.55;;;23.20;68.90;;;;;;5006230;28;20046;-59
2023/06/21 07:22:00;;;;;;;21.25;16.60;;;23.20;68.80;;;;;;4995437;28;20093;-59
2023/06/21 07:24:26;;;;;;;22.23;16.60;;;23.20;68.70;;;;;;4997320;28;20421;-59
2023/06/21 07:26:51;;;;;;;21.58;17.55;;;23.20;68.80;;;;;;5013066;28;20096;-59
2023/06/21 07:29:17;;;;;;;21.65;17.48;;;23.20;68.70;;;;;;5015610;28;20046;-59
2023/06/21 07:31:43;;;;;;;22.10;15.85;;;23.30;68.70;;;;;;5016156;28;20038;-59
2023/06/21 07:34:08;;;;;;;21.90;16.40;;;23.30;68.70;;;;;;5015706;28;20042;-59
2023/06/21 07:36:34;;;;;;;21.00;15.57;;;23.30;68.50;;;;;;5015375;28;20053;-60
2023/06/21 07:39:01;;;;;;;22.77;16.02;;;23.30;68.50;;;;;;5015356;28;20100;-60
2023/06/21 07:41:26;;;;;;;19.75;14.98;;;23.30;68.40;;;;;;5015382;28;20073;-59
2023/06/21 07:43:52;;;;;;;22.35;16.20;;;23.30;68.30;;;;;;5015244;28;20392;-60
2023/06/21 07:46:17;;;;;;;20.15;14.77;;;23.30;68.10;;;;;;5015927;28;20046;-59
2023/06/21 07:48:43;;;;;;;19.48;15.57;;;23.30;68.10;;;;;;5014860;28;20050;-60
2023/06/21 07:51:09;;;;;;;16.88;12.95;;;23.30;68.10;;;;;;5014878;28;20038;-60
2023/06/21 07:53:34;;;;;;;15.60;11.20;;;23.30;68.00;;;;;;5015756;28;20121;-57
2023/06/21 07:56:00;;;;;;;13.07;10.40;;;23.30;68.00;;;;;;5015085;28;20445;-59
2023/06/21 07:58:26;;;;;;;15.00;11.45;;;23.40;68.00;;;;;;5014965;28;20096;-59
2023/06/21 08:00:51;;;;;;;12.85;10.20;;;23.40;67.90;;;;;;5015297;28;20049;-57
2023/06/21 08:03:17;;;;;;;14.57;10.63;;;23.50;67.80;;;;;;5014527;28;20050;-57
2023/06/21 08:05:43;;;;;;;13.20;9.85;;;23.50;67.70;;;;;;5014828;28;20041;-57
2023/06/21 08:08:08;;;;;;;11.40;8.85;;;23.50;67.60;;;;;;5014928;28;20136;-60
2023/06/21 08:10:34;;;;;;;11.40;8.80;;;23.60;67.50;;;;;;4977125;28;20082;-60
2023/06/21 08:12:59;;;;;;;10.73;9.18;;;23.60;67.50;;;;;;4993727;28;20046;-57
2023/06/21 08:15:25;;;;;;;11.65;8.75;;;23.70;67.50;;;;;;4995461;28;20053;-59
2023/06/21 08:17:51;;;;;;;10.85;8.25;;;23.70;67.40;;;;;;4994809;28;20078;-58
2023/06/21 08:20:17;;;;;;;10.30;7.93;;;23.70;67.30;;;;;;4994960;28;20570;-57
2023/06/21 08:22:43;;;;;;;11.10;8.20;;;23.70;67.30;;;;;;4995325;28;20149;-57
2023/06/21 08:25:08;;;;;;;10.05;8.25;;;23.70;67.20;;;;;;4993283;28;20069;-59
2023/06/21 08:27:34;;;;;;;11.40;7.88;;;23.80;67.20;;;;;;5007921;28;20137;-59
2023/06/21 08:29:59;;;;;;;8.57;7.65;;;23.80;67.10;;;;;;5014361;28;20070;-59
2023/06/21 08:32:25;;;;;;;10.55;8.00;;;23.90;67.20;;;;;;5014513;28;20405;-58
2023/06/21 08:34:52;;;;;;;9.27;7.45;;;23.80;67.10;;;;;;5014550;28;20116;-57
2023/06/21 08:37:22;;;;;;;16.50;7.90;;;23.90;67.10;;;;;;5014259;28;20543;-58
2023/06/21 08:39:49;;;;;;;9.52;7.65;;;23.90;67.10;;;;;;5013476;28;20056;-57
2023/06/21 08:42:14;;;;;;;8.82;7.20;;;23.90;67.10;;;;;;5014057;28;20046;-59
2023/06/21 08:44:40;;;;;;;9.40;7.38;;;23.90;67.10;;;;;;5014332;28;20046;-59
2023/06/21 08:47:06;;;;;;;8.60;7.07;;;23.90;67.10;;;;;;5004845;28;20038;-57
2023/06/21 08:49:31;;;;;;;9.77;7.07;;;24.00;67.10;;;;;;4993695;28;20521;-57
2023/06/21 08:51:57;;;;;;;8.43;7.05;;;24.00;67.00;;;;;;4993185;28;20046;-57
2023/06/21 08:54:24;;;;;;;8.50;7.35;;;24.00;67.00;;;;;;4993182;28;20068;-57
2023/06/21 08:56:56;;;;;;;10.90;7.25;;;24.00;67.00;;;;;;4993722;28;20046;-58
2023/06/21 08:59:27;;;;;;;9.07;6.93;;;24.00;66.90;;;;;;4993631;28;20053;-57
2023/06/21 09:02:20;;;;;;;8.23;6.97;;;24.00;66.90;;;;;;4993387;28;20069;-57
2023/06/21 09:04:47;;;;;;;9.75;7.45;;;24.00;66.90;;;;;;4993506;28;20117;-57
2023/06/21 09:07:13;;;;;;;8.85;6.90;;;24.00;66.90;;;;;;4994193;28;20478;-58
2023/06/21 09:09:39;;;;;;;7.95;6.38;;;24.00;66.90;;;;;;4993435;28;20407;-58
2023/06/21 09:12:06;;;;;;;7.93;5.97;;;24.10;66.90;;;;;;4993876;28;20419;-58
2023/06/21 09:14:31;;;;;;;8.55;6.40;;;24.10;66.90;;;;;;4994205;28;20049;-58
2023/06/21 09:17:00;;;;;;;9.02;6.30;;;24.10;66.80;;;;;;4993072;28;20051;-58
2023/06/21 09:19:26;;;;;;;7.65;6.50;;;24.10;66.80;;;;;;4994298;28;20046;-58
2023/06/21 09:21:53;;;;;;;7.40;6.40;;;24.20;66.80;;;;;;4992644;28;20035;-58
2023/06/21 09:24:18;;;;;;;7.18;6.05;;;24.20;66.80;;;;;;4994345;28;20105;-58
2023/06/21 09:26:44;;;;;;;7.95;6.30;;;24.20;66.80;;;;;;4994140;28;20070;-58
2023/06/21 09:29:09;;;;;;;8.75;6.15;;;24.20;66.80;;;;;;4993196;28;20073;-58
2023/06/21 09:31:35;;;;;;;7.32;6.28;;;24.20;66.80;;;;;;4993929;28;20050;-58
2023/06/21 09:34:00;;;;;;;6.72;5.93;;;24.20;66.70;;;;;;4992723;28;20070;-58
2023/06/21 09:36:26;;;;;;;7.75;6.00;;;24.20;66.70;;;;;;4993487;28;20124;-58
2023/06/21 09:38:52;;;;;;;7.15;6.28;;;24.20;66.70;;;;;;4992555;28;20210;-58
2023/06/21 09:41:19;;;;;;;7.90;6.50;;;24.20;67.30;;;;;;4992973;28;20078;-58
2023/06/21 09:43:45;;;;;;;8.45;6.10;;;24.20;66.70;;;;;;4993529;28;20049;-58
2023/06/21 09:46:12;;;;;;;7.55;6.40;;;24.20;66.60;;;;;;4993345;28;20058;-58
2023/06/21 09:48:38;;;;;;;8.70;5.60;;;24.30;66.60;;;;;;4993745;28;20053;-58
2023/06/21 09:51:09;;;;;;;6.45;5.65;;;24.20;66.40;;;;;;4994022;28;20129;-59
2023/06/21 09:53:35;;;;;;;9.00;6.00;;;24.20;66.40;;;;;;4993055;28;20418;-59
2023/06/21 09:56:01;;;;;;;9.40;5.50;;;24.30;66.30;;;;;;4992935;28;20050;-58
2023/06/21 09:58:28;;;;;;;6.45;5.25;;;24.30;66.20;;;;;;4993696;28;20080;-59
2023/06/21 10:00:56;;;;;;;8.63;6.00;;;24.30;66.20;;;;;;4993204;28;20122;-59
2023/06/21 10:03:22;;;;;;;6.57;5.32;;;24.30;66.20;;;;;;4993411;28;20096;-59
2023/06/21 10:05:58;;;;;;;7.75;5.47;;;24.30;66.20;;;;;;4993588;28;20125;-59
2023/06/21 10:08:33;;;;;;;7.60;5.60;;;24.40;66.10;;;;;;4992352;28;20108;-59
2023/06/21 10:10:59;;;;;;;6.82;4.95;;;24.40;66.00;;;;;;4992704;28;20046;-59
2023/06/21 10:13:26;;;;;;;6.82;5.22;;;24.40;66.00;;;;;;4988365;28;20042;-59
2023/06/21 10:15:53;;;;;;;6.45;4.88;;;24.40;66.00;;;;;;4982313;28;20054;-59
2023/06/21 10:18:19;;;;;;;7.93;5.00;;;24.40;66.00;;;;;;4973693;28;20061;-59
2023/06/21 10:20:44;;;;;;;7.68;5.18;;;24.40;66.00;;;;;;4974016;28;20047;-59
2023/06/21 10:23:10;;;;;;;7.65;5.32;;;24.40;66.10;;;;;;4972402;28;20053;-59
2023/06/21 10:25:36;;;;;;;6.50;4.97;;;24.40;66.00;;;;;;4973342;28;20050;-58
2023/06/21 10:28:02;;;;;;;7.68;5.30;;;24.40;66.10;;;;;;4972703;28;20039;-59
2023/06/21 10:30:27;;;;;;;7.65;5.15;;;24.40;66.00;;;;;;4972614;28;20869;-60
2023/06/21 10:32:53;;;;;;;6.30;5.18;;;24.40;66.10;;;;;;4972037;28;20043;-59
2023/06/21 10:35:20;;;;;;;7.68;5.20;;;24.50;66.20;;;;;;4972050;28;20057;-59
2023/06/21 10:38:10;;;;;;;7.90;5.17;;;24.50;66.30;;;;;;4973048;28;20129;-59
2023/06/21 10:40:36;;;;;;;8.25;5.15;;;24.50;66.40;;;;;;4974168;28;20065;-59
2023/06/21 10:43:01;;;;;;;8.07;5.97;;;24.50;66.40;;;;;;4973519;28;20046;-58
2023/06/21 10:45:28;;;;;;;9.10;6.13;;;24.50;66.40;;;;;;4971887;28;20054;-58
2023/06/21 10:47:56;;;;;;;9.85;5.97;;;24.50;66.70;;;;;;4972343;28;20043;-58
2023/06/21 10:50:23;;;;;;;8.93;5.85;;;24.50;66.80;;;;;;4973349;28;20050;-58
2023/06/21 10:52:57;;;;;;;7.13;5.78;;;24.50;66.90;;;;;;4972727;28;20394;-58
2023/06/21 10:55:22;;;;;;;8.43;5.97;;;24.50;66.90;;;;;;4973937;28;20105;-58
2023/06/21 10:57:53;;;;;;;8.15;6.63;;;24.60;66.80;;;;;;4974979;28;20574;-58
2023/06/21 11:00:19;;;;;;;7.10;5.90;;;24.60;66.80;;;;;;4978786;28;20042;-58
2023/06/21 11:02:45;;;;;;;8.60;5.75;;;24.60;66.90;;;;;;4971358;28;20039;-58
2023/06/21 11:05:18;;;;;;;8.27;5.97;;;24.60;66.90;;;;;;4972120;28;20391;-59
2023/06/21 11:07:57;;;;;;;7.75;5.70;;;24.60;66.90;;;;;;4974031;28;20042;-59
2023/06/21 11:10:49;;;;;;;9.50;5.80;;;24.50;66.90;;;;;;4988421;28;20054;-58
2023/06/21 11:13:16;;;;;;;9.15;6.20;;;24.50;66.80;;;;;;4988009;28;20035;-58
2023/06/21 11:15:45;;;;;;;12.50;6.25;;;24.60;66.80;;;;;;4989300;28;20031;-58
2023/06/21 11:18:18;;;;;;;7.57;6.20;;;24.60;66.80;;;;;;4989158;28;20051;-58
2023/06/21 11:20:45;;;;;;;9.30;5.97;;;24.60;66.80;;;;;;4988202;28;20042;-58
2023/06/21 11:23:10;;;;;;;6.65;5.35;;;24.70;66.80;;;;;;4989762;28;20051;-58
2023/06/21 11:25:36;;;;;;;7.55;5.68;;;24.70;66.80;;;;;;4990495;28;20052;-58
2023/06/21 11:28:24;;;;;;;8.00;5.60;;;24.70;66.90;;;;;;4989426;28;20054;-58
2023/06/21 11:31:02;;;;;;;6.38;5.55;;;24.70;66.80;;;;;;4990085;28;20102;-59
2023/06/21 11:33:31;;;;;;;9.27;6.05;;;24.70;66.80;;;;;;4988719;28;20121;-58
2023/06/21 11:36:03;;;;;;;7.38;5.45;;;24.70;66.80;;;;;;4990930;28;20058;-58
2023/06/21 11:38:30;;;;;;;6.70;5.35;;;24.70;66.90;;;;;;4990203;28;20390;-59
2023/06/21 11:40:59;;;;;;;8.52;5.70;;;24.70;66.80;;;;;;4990656;28;20062;-58
2023/06/21 11:43:25;;;;;;;7.63;6.00;;;24.70;66.90;;;;;;4987911;28;20121;-59
2023/06/21 11:46:00;;;;;;;7.85;5.53;;;24.70;66.90;;;;;;4992388;28;20149;-59
2023/06/21 11:48:26;;;;;;;7.55;5.53;;;24.80;66.90;;;;;;4991888;28;20048;-59
2023/06/21 11:50:52;;;;;;;7.22;5.32;;;24.80;66.90;;;;;;4993529;28;20042;-58
2023/06/21 11:53:26;;;;;;;6.15;5.03;;;24.80;66.90;;;;;;4994668;28;20044;-59
2023/06/21 11:55:53;;;;;;;6.68;4.72;;;24.80;66.80;;;;;;4994320;28;20045;-58
2023/06/21 11:58:18;;;;;;;8.55;5.10;;;24.80;66.80;;;;;;4993611;28;20053;-58
2023/06/21 12:00:45;;;;;;;6.82;5.60;;;24.80;66.80;;;;;;4994687;28;20506;-58
2023/06/21 12:03:11;;;;;;;7.47;5.68;;;24.80;66.80;;;;;;4993636;28;20122;-58
2023/06/21 12:05:50;;;;;;;8.55;5.38;;;24.80;66.90;;;;;;4992103;28;20046;-58
2023/06/21 12:08:17;;;;;;;7.72;5.28;;;24.80;66.90;;;;;;4994693;28;20046;-59
2023/06/21 12:10:43;;;;;;;7.45;5.65;;;24.80;66.90;;;;;;4992149;28;20045;-58
2023/06/21 12:13:12;;;;;;;9.02;5.28;;;24.80;66.90;;;;;;4994791;28;20409;-58
2023/06/21 12:15:37;;;;;;;10.05;5.53;;;24.80;66.90;;;;;;4983216;28;20050;-57
2023/06/21 12:18:08;;;;;;;6.97;4.78;;;24.80;66.90;;;;;;4976398;28;20097;-57
2023/06/21 12:20:37;;;;;;;7.10;5.50;;;24.90;67.00;;;;;;4993188;28;20042;-58
2023/06/21 12:23:04;;;;;;;6.90;4.88;;;24.90;66.90;;;;;;4994701;28;20045;-57
2023/06/21 12:25:39;;;;;;;7.97;5.13;;;24.90;66.90;;;;;;4992340;28;20457;-57
2023/06/21 12:28:05;;;;;;;6.90;5.07;;;24.90;66.90;;;;;;4991469;28;20391;-57
2023/06/21 12:30:30;;;;;;;7.00;5.03;;;24.90;66.90;;;;;;4976269;28;20125;-58
2023/06/21 12:32:56;;;;;;;7.30;5.25;;;24.90;66.90;;;;;;4994680;28;20042;-57
2023/06/21 12:35:21;;;;;;;7.43;5.18;;;24.90;66.90;;;;;;4994105;28;20034;-58
2023/06/21 12:37:47;;;;;;;8.23;5.28;;;24.90;66.90;;;;;;4994406;28;20055;-58
2023/06/21 12:40:16;;;;;;;6.95;4.88;;;24.90;67.00;;;;;;4994607;28;20050;-57